Time;durP1;ratioP1;P1;durP2;ratioP2;P2;SDS_P1;SDS_P2;PMS_P1;PMS_P2;Temp;Humidity;BMP_temperature;BMP_pressure;BME280_temperature;BME280_humidity;BME280_pressure;Samples;Min_cycle;Max_cycle;Signal;HPM_P1;HPM_P2
2022/07/27 00:00:07;;;;;;;1.58;0.80;;;;;;;12.95;69.06;100823.16;4884880;29;20112;-74
2022/07/27 00:02:32;;;;;;;6.68;0.93;;;;;;;12.99;68.53;100816.03;4872014;29;20063;-74
2022/07/27 00:04:58;;;;;;;2.88;0.73;;;;;;;13.00;68.82;100808.63;4885744;29;20028;-74
2022/07/27 00:07:23;;;;;;;2.83;1.00;;;;;;;13.07;68.56;100823.75;4865626;29;20025;-74
2022/07/27 00:09:49;;;;;;;1.40;0.98;;;;;;;13.09;68.71;100817.97;4871753;29;20029;-74
2022/07/27 00:12:14;;;;;;;1.73;1.00;;;;;;;13.08;68.67;100808.94;4888965;29;20048;-73
2022/07/27 00:14:39;;;;;;;3.25;1.13;;;;;;;13.15;68.67;100810.56;4892634;29;20024;-73
2022/07/27 00:17:05;;;;;;;0.75;0.70;;;;;;;13.22;68.43;100806.44;4854121;29;20043;-73
2022/07/27 00:19:30;;;;;;;1.95;0.85;;;;;;;13.27;68.14;100814.69;4867479;29;20037;-74
2022/07/27 00:21:57;;;;;;;1.42;0.68;;;;;;;13.30;68.86;100807.81;4866732;29;20039;-73
2022/07/27 00:24:23;;;;;;;1.08;0.70;;;;;;;13.31;68.42;100805.91;4878493;29;20041;-74
2022/07/27 00:26:49;;;;;;;1.08;0.70;;;;;;;13.31;68.33;100809.47;4851080;29;20025;-73
2022/07/27 00:29:15;;;;;;;2.30;0.90;;;;;;;13.31;68.63;100814.97;4868253;29;20033;-72
2022/07/27 00:31:40;;;;;;;1.33;0.60;;;;;;;13.31;68.97;100814.16;4864127;29;20473;-74
2022/07/27 00:34:06;;;;;;;1.10;0.60;;;;;;;13.24;68.10;100803.41;4870842;29;20096;-74
2022/07/27 00:36:31;;;;;;;3.03;0.90;;;;;;;13.21;69.09;100810.28;4872120;29;20134;-72
2022/07/27 00:38:57;;;;;;;1.52;0.70;;;;;;;13.15;69.07;100813.31;4889323;29;20025;-74
2022/07/27 00:41:22;;;;;;;1.95;0.90;;;;;;;13.09;69.37;100813.28;4886794;29;20467;-73
2022/07/27 00:43:59;;;;;;;2.40;0.90;;;;;;;13.04;68.77;100801.47;4894707;29;20028;-74
2022/07/27 00:46:26;;;;;;;5.65;1.10;;;;;;;13.06;68.97;100804.78;4886321;29;20035;-74
2022/07/27 00:48:52;;;;;;;2.35;0.75;;;;;;;13.07;69.35;100803.72;4891500;29;20134;-73
2022/07/27 00:51:19;;;;;;;3.35;0.75;;;;;;;13.12;68.71;100813.88;4879275;29;20092;-72
2022/07/27 00:53:48;;;;;;;2.55;0.80;;;;;;;13.15;69.19;100805.06;4902435;29;20033;-73
2022/07/27 00:56:14;;;;;;;5.82;0.88;;;;;;;13.12;68.93;100802.88;4881348;29;20100;-73
2022/07/27 00:58:41;;;;;;;3.70;0.90;;;;;;;13.15;68.99;100805.06;4888670;29;20108;-73
2022/07/27 01:01:06;;;;;;;2.25;0.82;;;;;;;13.16;68.98;100806.72;4869885;29;20095;-73
2022/07/27 01:03:32;;;;;;;1.05;0.50;;;;;;;13.15;68.72;100810.56;4877499;29;20103;-71
2022/07/27 01:05:57;;;;;;;0.70;0.60;;;;;;;13.16;68.85;100806.72;4888037;29;20607;-73
2022/07/27 01:08:24;;;;;;;1.83;0.70;;;;;;;13.18;69.07;100799.03;4868769;29;20132;-73
2022/07/27 01:10:50;;;;;;;1.40;0.80;;;;;;;13.19;68.78;100806.19;4882999;29;20036;-73
2022/07/27 01:13:16;;;;;;;2.30;0.60;;;;;;;13.17;68.47;100798.22;4897145;29;20032;-73
2022/07/27 01:15:42;;;;;;;0.95;0.75;;;;;;;13.17;68.33;100798.22;4883081;29;20042;-72
2022/07/27 01:18:25;;;;;;;2.10;0.82;;;;;;;13.20;68.43;100797.66;4870025;29;20044;-72
2022/07/27 01:20:51;;;;;;;2.22;0.70;;;;;;;13.23;68.45;100796.31;4891756;29;20478;-73
2022/07/27 01:23:16;;;;;;;0.52;0.40;;;;;;;13.24;68.10;100789.69;4885672;29;20083;-73
2022/07/27 01:25:42;;;;;;;1.83;0.82;;;;;;;13.26;68.06;100787.50;4870497;29;20029;-72
2022/07/27 01:28:07;;;;;;;1.23;0.60;;;;;;;13.32;68.36;100782.84;4872154;29;20029;-72
2022/07/27 01:30:34;;;;;;;1.92;0.70;;;;;;;13.33;68.11;100781.72;4885321;29;20021;-73
2022/07/27 01:33:07;;;;;;;2.60;0.60;;;;;;;13.34;67.64;100786.13;4881651;29;20036;-72
2022/07/27 01:35:35;;;;;;;2.20;0.73;;;;;;;13.33;67.73;100790.81;4870032;29;20056;-72
2022/07/27 01:38:00;;;;;;;1.83;0.77;;;;;;;13.34;68.20;100786.13;4863709;29;20786;-72
2022/07/27 01:40:26;;;;;;;3.13;1.00;;;;;;;13.27;67.78;100786.38;4876117;29;20132;-73
2022/07/27 01:42:52;;;;;;;3.47;1.17;;;;;;;13.20;68.46;100785.84;4897442;29;20032;-73
2022/07/27 01:45:18;;;;;;;2.42;0.90;;;;;;;13.08;68.09;100778.72;4882223;29;20068;-74
2022/07/27 01:47:43;;;;;;;2.78;1.35;;;;;;;13.01;68.58;100783.66;4893143;29;20336;-74
2022/07/27 01:50:09;;;;;;;1.02;0.60;;;;;;;12.96;68.56;100785.56;4851377;29;20112;-74
2022/07/27 01:52:35;;;;;;;3.17;0.80;;;;;;;12.90;68.95;100782.00;4877685;29;20280;-73
2022/07/27 01:55:00;;;;;;;1.42;0.70;;;;;;;12.91;68.50;100775.41;4862469;29;20133;-73
2022/07/27 01:57:26;;;;;;;0.73;0.60;;;;;;;12.91;68.37;100778.97;4845569;29;20510;-72
2022/07/27 01:59:52;;;;;;;1.98;0.90;;;;;;;12.95;68.65;100773.75;4882757;29;20024;-72
2022/07/27 02:02:18;;;;;;;1.40;0.70;;;;;;;13.01;67.93;100772.69;4875321;29;20054;-74
2022/07/27 02:04:43;;;;;;;2.25;0.80;;;;;;;12.98;67.95;100766.91;4880214;29;20040;-73
2022/07/27 02:07:09;;;;;;;1.75;0.90;;;;;;;12.95;68.22;100761.97;4888072;29;20041;-75
2022/07/27 02:09:34;;;;;;;2.30;0.73;;;;;;;12.93;67.78;100763.03;4883489;29;20029;-73
2022/07/27 02:14:44;;;;;;;1.77;0.68;;;;;;;12.93;68.03;100762.22;4874863;29;20572;-73
2022/07/27 02:17:09;;;;;;;1.25;0.70;;;;;;;12.90;67.88;100760.03;4876899;29;20048;-72
2022/07/27 02:19:35;;;;;;;1.63;0.80;;;;;;;12.99;68.28;100747.41;4883046;29;20032;-72
2022/07/27 02:22:00;;;;;;;0.50;0.50;;;;;;;13.00;67.85;100748.25;4896010;29;20048;-73
2022/07/27 02:24:26;;;;;;;0.80;0.73;;;;;;;13.01;67.65;100752.63;4872913;29;20038;-72
2022/07/27 02:26:51;;;;;;;2.47;0.80;;;;;;;13.01;67.88;100761.69;4900600;29;20440;-72
2022/07/27 02:29:17;;;;;;;0.60;0.55;;;;;;;12.93;67.77;100754.00;4894347;29;20760;-72
2022/07/27 02:31:42;;;;;;;2.40;0.80;;;;;;;12.88;68.48;100756.75;4887446;29;20067;-74
2022/07/27 02:34:08;;;;;;;2.25;0.88;;;;;;;12.87;68.13;100752.34;4873476;29;20065;-73
2022/07/27 02:36:33;;;;;;;3.35;0.80;;;;;;;12.84;68.21;100761.13;4863724;29;20056;-73
2022/07/27 02:38:59;;;;;;;1.13;0.90;;;;;;;12.78;68.08;100763.06;4877994;29;20132;-71
2022/07/27 02:41:24;;;;;;;1.60;0.70;;;;;;;12.71;68.73;100762.47;4867875;29;20128;-70
2022/07/27 02:43:50;;;;;;;4.45;0.77;;;;;;;12.68;69.08;100752.88;4887725;29;20020;-75
2022/07/27 02:46:15;;;;;;;1.75;0.80;;;;;;;12.66;68.53;100755.06;4877977;29;20071;-73
2022/07/27 02:48:40;;;;;;;1.10;0.70;;;;;;;12.64;68.92;100761.94;4868764;29;20492;-73
2022/07/27 02:51:06;;;;;;;0.70;0.60;;;;;;;12.57;68.88;100753.94;4885608;29;20033;-72
2022/07/27 02:53:31;;;;;;;1.52;0.82;;;;;;;12.52;68.99;100760.25;4883727;29;20084;-73
2022/07/27 02:55:57;;;;;;;0.88;0.70;;;;;;;12.51;69.43;100766.00;4869420;29;20419;-72
2022/07/27 02:58:23;;;;;;;2.55;0.65;;;;;;;12.48;69.57;100763.81;4899074;29;20121;-72
2022/07/27 03:00:48;;;;;;;2.70;0.80;;;;;;;12.42;69.49;100759.41;4867446;29;20040;-73
2022/07/27 03:03:14;;;;;;;1.15;0.70;;;;;;;12.42;69.41;100767.63;4891468;29;20405;-72
2022/07/27 03:05:39;;;;;;;2.15;1.00;;;;;;;12.38;69.67;100768.19;4871757;29;20041;-73
2022/07/27 03:08:05;;;;;;;1.00;0.75;;;;;;;12.34;69.45;100767.06;4873300;29;20029;-72
2022/07/27 03:10:30;;;;;;;1.23;0.68;;;;;;;12.30;69.62;100765.94;4877084;29;20037;-72
2022/07/27 03:12:56;;;;;;;1.58;1.00;;;;;;;12.24;69.86;100761.56;4890327;29;20048;-72
2022/07/27 03:15:22;;;;;;;3.90;1.30;;;;;;;12.16;70.63;100760.16;4893964;29;20021;-72
2022/07/27 03:17:48;;;;;;;2.83;0.80;;;;;;;12.09;70.88;100761.47;4889719;29;20104;-72
2022/07/27 03:20:13;;;;;;;3.05;1.02;;;;;;;12.03;71.08;100760.63;4865573;29;20200;-74
2022/07/27 03:22:39;;;;;;;2.05;0.80;;;;;;;12.08;70.90;100751.63;4886504;29;20020;-73
2022/07/27 03:25:05;;;;;;;2.88;0.90;;;;;;;12.04;70.66;100754.88;4874726;29;20025;-72
2022/07/27 03:27:30;;;;;;;1.17;0.88;;;;;;;12.04;71.03;100760.34;4902615;29;20047;-73
2022/07/27 03:29:56;;;;;;;2.63;0.80;;;;;;;12.04;70.93;100754.88;4876260;29;20472;-72
2022/07/27 03:32:22;;;;;;;2.70;0.85;;;;;;;12.08;71.18;100770.81;4884477;29;20444;-73
2022/07/27 03:34:47;;;;;;;1.77;1.00;;;;;;;12.08;70.89;100770.81;4873388;29;20060;-72
2022/07/27 03:37:14;;;;;;;2.17;0.93;;;;;;;12.05;71.35;100766.69;4879779;29;20029;-73
2022/07/27 03:39:39;;;;;;;2.63;0.90;;;;;;;12.01;71.65;100758.16;4869851;29;20067;-72
2022/07/27 03:42:05;;;;;;;0.60;0.60;;;;;;;12.00;71.55;100764.75;4875427;29;20393;-73
2022/07/27 03:44:31;;;;;;;1.63;0.70;;;;;;;12.00;71.34;100759.28;4882262;29;20029;-74
2022/07/27 03:46:56;;;;;;;1.35;0.70;;;;;;;11.99;71.52;100763.09;4880668;29;20031;-71
2022/07/27 03:49:22;;;;;;;3.30;1.10;;;;;;;12.03;71.62;100758.72;4890209;29;20037;-71
2022/07/27 03:51:47;;;;;;;1.30;0.85;;;;;;;12.05;71.69;100744.75;4888643;29;20029;-71
2022/07/27 03:54:13;;;;;;;1.10;0.77;;;;;;;12.11;71.65;100749.16;4862719;29;20024;-73
2022/07/27 03:56:38;;;;;;;0.98;0.75;;;;;;;12.12;72.11;100750.81;4879219;29;20035;-72
2022/07/27 03:59:04;;;;;;;2.65;1.00;;;;;;;12.16;71.66;100745.59;4884598;29;20033;-73
2022/07/27 04:01:29;;;;;;;1.40;0.95;;;;;;;12.16;72.35;100749.19;4888773;29;20037;-73
2022/07/27 04:03:55;;;;;;;1.98;1.00;;;;;;;12.17;72.31;100747.25;4876625;29;20147;-73
2022/07/27 04:06:20;;;;;;;1.10;0.70;;;;;;;12.19;71.80;100753.28;4880861;29;20108;-73
2022/07/27 04:08:46;;;;;;;2.85;1.35;;;;;;;12.21;72.24;100751.13;4861222;29;20048;-74
2022/07/27 04:11:11;;;;;;;1.42;0.88;;;;;;;12.21;71.90;100749.19;4880486;29;20547;-73
2022/07/27 04:13:36;;;;;;;2.72;1.00;;;;;;;12.25;72.29;100752.25;4889386;29;20032;-73
2022/07/27 04:16:02;;;;;;;1.98;0.90;;;;;;;12.34;72.42;100758.84;4885217;29;20037;-74
2022/07/27 04:18:27;;;;;;;4.88;0.80;;;;;;;12.36;71.78;100750.34;4895892;29;20097;-73
2022/07/27 04:20:53;;;;;;;2.65;1.10;;;;;;;12.36;72.34;100761.31;4899516;29;20080;-73
2022/07/27 04:23:18;;;;;;;1.40;0.80;;;;;;;12.32;72.57;100761.00;4853872;29;20029;-73
2022/07/27 04:25:44;;;;;;;2.58;1.08;;;;;;;12.28;72.01;100765.41;4898048;29;20138;-74
2022/07/27 04:28:09;;;;;;;3.95;1.00;;;;;;;12.22;72.89;100766.47;4892207;29;20115;-74
2022/07/27 04:30:35;;;;;;;2.20;1.20;;;;;;;12.17;72.77;100759.03;4874373;29;20029;-74
2022/07/27 04:33:00;;;;;;;2.58;1.10;;;;;;;12.14;72.78;100769.75;4869703;29;20056;-72
2022/07/27 04:35:26;;;;;;;2.08;1.02;;;;;;;12.11;73.26;100770.28;4863888;29;20040;-72
2022/07/27 04:37:51;;;;;;;2.78;1.20;;;;;;;12.11;73.53;100770.28;4869392;29;20029;-72
2022/07/27 04:40:16;;;;;;;4.32;0.95;;;;;;;12.09;73.83;100762.31;4876152;29;20381;-73
2022/07/27 04:42:42;;;;;;;1.52;0.90;;;;;;;12.10;73.08;100766.69;4865010;29;20041;-73
2022/07/27 04:45:07;;;;;;;2.22;0.98;;;;;;;12.14;73.25;100775.22;4882866;29;20385;-73
2022/07/27 04:47:33;;;;;;;1.65;1.05;;;;;;;12.17;73.95;100764.53;4879810;29;20036;-73
2022/07/27 04:49:58;;;;;;;3.38;1.20;;;;;;;12.22;73.70;100760.97;4882390;29;20125;-73
2022/07/27 04:52:24;;;;;;;2.30;0.90;;;;;;;12.34;73.38;100767.06;4855325;29;20124;-72
2022/07/27 04:54:51;;;;;;;4.57;1.08;;;;;;;12.46;73.65;100774.25;4895920;29;20378;-73
2022/07/27 04:57:17;;;;;;;2.90;0.88;;;;;;;12.48;72.75;100774.78;4893594;29;20416;-73
2022/07/27 04:59:42;;;;;;;0.68;0.60;;;;;;;12.50;72.92;100770.69;4876113;29;20039;-74
2022/07/27 05:02:07;;;;;;;1.85;0.82;;;;;;;12.57;72.83;100781.38;4857989;29;20037;-74
2022/07/27 05:04:33;;;;;;;1.67;0.75;;;;;;;12.61;72.90;100774.25;4891214;29;20105;-73
2022/07/27 05:06:59;;;;;;;1.95;0.90;;;;;;;12.69;73.49;100771.00;4866540;29;20548;-72
2022/07/27 05:09:24;;;;;;;2.35;0.90;;;;;;;12.77;73.15;100771.56;4871738;29;20426;-73
2022/07/27 05:11:50;;;;;;;2.05;0.80;;;;;;;12.89;72.87;100772.09;4876284;29;20461;-75
2022/07/27 05:14:15;;;;;;;1.70;1.10;;;;;;;12.96;72.80;100761.69;4890364;29;20499;-73
2022/07/27 05:16:41;;;;;;;1.63;1.25;;;;;;;13.10;72.60;100760.03;4884267;29;20027;-74
2022/07/27 05:19:07;;;;;;;1.55;1.10;;;;;;;13.19;72.57;100767.75;4859580;29;20036;-74
2022/07/27 05:21:32;;;;;;;2.33;1.00;;;;;;;13.27;72.15;100770.75;4898439;29;20495;-74
2022/07/27 05:23:58;;;;;;;2.95;1.00;;;;;;;13.30;71.88;100772.09;4885155;29;20028;-74
2022/07/27 05:26:25;;;;;;;0.82;0.82;;;;;;;13.40;71.61;100769.41;4878373;29;20469;-73
2022/07/27 05:28:50;;;;;;;1.17;1.00;;;;;;;13.47;71.46;100776.53;4868898;29;20124;-75
2022/07/27 05:31:16;;;;;;;1.20;0.85;;;;;;;13.51;70.81;100774.88;4894722;29;20460;-74
2022/07/27 05:33:42;;;;;;;1.92;1.15;;;;;;;13.53;70.93;100768.00;4877361;29;20029;-74
2022/07/27 05:36:08;;;;;;;2.67;1.33;;;;;;;13.64;70.64;100770.72;4860587;29;20119;-72
2022/07/27 05:38:38;;;;;;;2.15;1.60;;;;;;;13.63;70.75;100772.66;4867169;29;20033;-74
2022/07/27 05:41:05;;;;;;;1.58;0.90;;;;;;;13.73;71.13;100786.38;4882471;29;20028;-73
2022/07/27 05:43:30;;;;;;;2.28;0.85;;;;;;;13.77;70.28;100779.22;4888311;29;20050;-73
2022/07/27 05:45:56;;;;;;;1.10;0.68;;;;;;;13.83;70.11;100781.94;4870630;29;20401;-72
2022/07/27 05:48:21;;;;;;;1.45;0.60;;;;;;;13.89;70.59;100780.84;4893294;29;20033;-73
2022/07/27 05:50:47;;;;;;;3.85;1.20;;;;;;;13.92;70.40;100781.09;4858937;29;20033;-74
2022/07/27 05:53:12;;;;;;;1.80;1.10;;;;;;;13.95;70.36;100777.78;4868841;29;20088;-73
2022/07/27 05:55:38;;;;;;;2.20;1.25;;;;;;;14.09;70.64;100785.44;4851749;29;20028;-75
2022/07/27 05:58:05;;;;;;;2.28;1.20;;;;;;;14.05;70.21;100774.19;4871999;29;20040;-74
2022/07/27 06:00:30;;;;;;;2.08;1.20;;;;;;;14.22;70.00;100784.00;4850119;29;20052;-71
2022/07/27 06:02:56;;;;;;;2.20;1.00;;;;;;;14.34;70.18;100784.50;4876964;29;20056;-71
2022/07/27 06:05:21;;;;;;;2.10;0.90;;;;;;;14.42;69.49;100792.16;4881994;29;20029;-71
2022/07/27 06:07:59;;;;;;;1.20;0.90;;;;;;;14.51;69.81;100791.56;4876762;29;20047;-70
2022/07/27 06:10:36;;;;;;;1.08;0.90;;;;;;;14.68;69.54;100785.75;4861877;29;20092;-70
2022/07/27 06:13:03;;;;;;;1.75;1.00;;;;;;;14.76;70.01;100783.22;4882940;29;20025;-72
2022/07/27 06:15:29;;;;;;;3.58;1.35;;;;;;;14.87;69.60;100789.47;4868932;29;20060;-73
2022/07/27 06:17:54;;;;;;;2.10;1.13;;;;;;;14.92;69.52;100785.84;4865599;29;20039;-73
2022/07/27 06:20:22;;;;;;;1.17;0.98;;;;;;;14.97;69.72;100794.06;4879411;29;20032;-73
2022/07/27 06:22:51;;;;;;;2.05;1.20;;;;;;;15.00;69.93;100791.56;4900303;29;20368;-71
2022/07/27 06:25:18;;;;;;;3.33;1.30;;;;;;;15.10;69.64;100792.56;4886402;29;20068;-73
2022/07/27 06:27:44;;;;;;;2.13;1.30;;;;;;;15.19;69.68;100788.94;4872601;29;20051;-72
2022/07/27 06:30:12;;;;;;;3.70;1.15;;;;;;;15.28;69.52;100788.31;4879928;29;20053;-72
2022/07/27 06:32:37;;;;;;;2.30;1.38;;;;;;;15.36;69.75;100791.28;4873758;29;20089;-73
2022/07/27 06:35:03;;;;;;;2.50;1.05;;;;;;;15.48;69.54;100790.06;4879728;29;20473;-73
2022/07/27 06:37:30;;;;;;;1.75;1.00;;;;;;;15.60;69.46;100795.19;4901464;29;20037;-75
2022/07/27 06:39:56;;;;;;;2.95;1.40;;;;;;;15.67;69.02;100792.91;4895661;29;20080;-73
2022/07/27 06:42:22;;;;;;;3.08;1.05;;;;;;;15.73;68.97;100794.50;4878014;29;20033;-72
2022/07/27 06:44:47;;;;;;;3.22;1.33;;;;;;;15.84;69.33;100795.25;4879138;29;20028;-74
2022/07/27 06:47:13;;;;;;;2.47;1.17;;;;;;;15.95;69.12;100801.47;4856735;29;20032;-74
2022/07/27 06:49:38;;;;;;;2.97;1.30;;;;;;;16.03;69.02;100800.81;4885774;29;20033;-75
2022/07/27 06:52:06;;;;;;;5.30;1.40;;;;;;;16.11;68.82;100800.19;4871308;29;20033;-74
2022/07/27 06:54:31;;;;;;;4.45;1.42;;;;;;;16.18;68.85;100802.59;4880274;29;20034;-75
2022/07/27 06:56:58;;;;;;;1.95;1.38;;;;;;;16.28;68.66;100799.69;4883896;29;20120;-73
2022/07/27 06:59:23;;;;;;;3.00;1.00;;;;;;;16.47;68.23;100813.53;4872717;29;20395;-74
2022/07/27 07:01:49;;;;;;;5.57;1.40;;;;;;;16.62;68.26;100806.97;4875293;29;20040;-74
2022/07/27 07:04:15;;;;;;;2.45;1.20;;;;;;;16.77;68.01;100805.94;4895125;29;20069;-74
2022/07/27 07:06:40;;;;;;;4.22;1.98;;;;;;;16.93;67.83;100810.13;4875850;29;20033;-73
2022/07/27 07:09:05;;;;;;;5.72;1.75;;;;;;;17.05;67.58;100811.63;4872030;29;20043;-73
2022/07/27 07:11:31;;;;;;;3.70;1.50;;;;;;;17.08;67.47;100811.00;4860947;29;20100;-74
2022/07/27 07:13:56;;;;;;;5.72;2.28;;;;;;;17.20;67.44;100807.78;4868525;29;20504;-76
2022/07/27 07:16:22;;;;;;;5.03;2.35;;;;;;;17.37;67.08;100812.75;4864740;29;20036;-76
2022/07/27 07:18:47;;;;;;;4.93;1.75;;;;;;;17.40;67.27;100818.50;4844181;29;20051;-74
2022/07/27 07:21:15;;;;;;;5.25;1.95;;;;;;;17.30;67.15;100817.88;4853945;29;20120;-74
2022/07/27 07:23:40;;;;;;;6.32;1.95;;;;;;;17.44;67.13;100819.53;4872332;29;20028;-74
2022/07/27 07:26:06;;;;;;;7.85;2.97;;;;;;;17.52;66.70;100829.09;4884674;29;20044;-74
2022/07/27 07:28:31;;;;;;;4.00;1.95;;;;;;;17.61;66.77;100824.50;4892438;29;20037;-74
2022/07/27 07:30:57;;;;;;;3.80;1.90;;;;;;;17.79;66.18;100831.09;4879496;29;20025;-73
2022/07/27 07:33:22;;;;;;;4.45;1.70;;;;;;;18.01;66.35;100828.81;4896971;29;20088;-74
2022/07/27 07:35:47;;;;;;;2.78;1.80;;;;;;;18.10;65.50;100830.53;4895139;29;20037;-73
2022/07/27 07:38:13;;;;;;;3.95;1.95;;;;;;;18.22;65.64;100824.47;4898760;29;20028;-74
2022/07/27 07:40:38;;;;;;;5.47;2.25;;;;;;;18.36;65.32;100831.97;4876477;29;20029;-73
2022/07/27 07:43:04;;;;;;;4.45;1.63;;;;;;;18.53;64.98;100840.47;4844180;29;20938;-73
2022/07/27 07:45:33;;;;;;;4.13;1.80;;;;;;;18.60;64.53;100832.56;4873539;29;20054;-75
2022/07/27 07:47:59;;;;;;;3.95;1.85;;;;;;;18.80;64.30;100836.81;4893174;29;20041;-73
2022/07/27 07:50:25;;;;;;;2.13;1.13;;;;;;;18.89;64.20;100839.69;4855841;29;20088;-73
2022/07/27 07:52:53;;;;;;;7.72;1.98;;;;;;;18.82;63.81;100834.56;4877035;29;20036;-73
2022/07/27 07:55:24;;;;;;;3.47;1.30;;;;;;;18.94;64.15;100836.81;4859549;29;20036;-73
2022/07/27 07:57:50;;;;;;;2.92;1.23;;;;;;;19.25;63.71;100827.75;4889303;29;20061;-73
2022/07/27 08:00:16;;;;;;;4.88;1.35;;;;;;;19.68;62.23;100830.00;4876896;29;20119;-73
2022/07/27 08:02:46;;;;;;;3.67;1.20;;;;;;;20.06;61.69;100837.06;4885592;29;20777;-73
2022/07/27 08:05:12;;;;;;;2.33;1.00;;;;;;;20.43;60.42;100834.91;4894802;29;20021;-73
2022/07/27 08:07:38;;;;;;;4.93;0.82;;;;;;;20.73;59.31;100824.88;4893807;29;20047;-74
2022/07/27 08:10:05;;;;;;;2.58;1.00;;;;;;;20.99;58.29;100832.38;4880769;29;20032;-74
2022/07/27 08:12:30;;;;;;;2.47;0.90;;;;;;;21.54;57.91;100827.31;4871604;29;20065;-73
2022/07/27 08:14:56;;;;;;;5.88;1.30;;;;;;;22.07;55.73;100823.19;4875966;29;20033;-74
2022/07/27 08:17:21;;;;;;;4.32;1.73;;;;;;;22.47;54.66;100836.78;4861923;29;20037;-75
2022/07/27 08:19:48;;;;;;;3.88;1.55;;;;;;;22.38;52.99;100833.22;4894927;29;20056;-74
2022/07/27 08:22:14;;;;;;;4.70;1.00;;;;;;;22.20;53.51;100837.22;4895053;29;20100;-73
2022/07/27 08:24:39;;;;;;;3.63;1.00;;;;;;;21.93;54.19;100831.78;4878593;29;20428;-74
2022/07/27 08:27:05;;;;;;;3.38;0.98;;;;;;;21.94;54.50;100827.00;4876802;29;20060;-74
2022/07/27 08:29:31;;;;;;;7.45;1.00;;;;;;;21.93;52.73;100834.56;4871040;29;20037;-76
2022/07/27 08:31:56;;;;;;;3.03;0.95;;;;;;;21.99;52.62;100831.56;4885509;29;20031;-74
2022/07/27 08:34:22;;;;;;;4.55;1.02;;;;;;;22.33;52.96;100830.63;4864411;29;20033;-76
2022/07/27 08:36:47;;;;;;;2.65;1.10;;;;;;;22.76;51.28;100835.09;4890324;29;20033;-74
2022/07/27 08:39:13;;;;;;;6.00;0.93;;;;;;;23.11;49.40;100837.66;4853190;29;20078;-74
2022/07/27 08:41:39;;;;;;;1.50;0.73;;;;;;;23.70;49.17;100844.97;4892801;29;20033;-74
2022/07/27 08:44:07;;;;;;;5.50;0.95;;;;;;;23.94;48.00;100839.81;4875408;29;20024;-74
2022/07/27 08:46:34;;;;;;;4.22;1.15;;;;;;;24.13;47.61;100837.25;4893390;29;20036;-74
2022/07/27 08:49:00;;;;;;;2.88;0.90;;;;;;;24.31;46.82;100834.22;4890343;29;20032;-73
2022/07/27 08:51:26;;;;;;;4.45;0.90;;;;;;;24.45;46.17;100834.69;4896490;29;20033;-74
2022/07/27 08:53:53;;;;;;;2.25;0.98;;;;;;;23.98;46.99;100829.56;4860803;29;20043;-72
2022/07/27 08:56:18;;;;;;;2.20;0.90;;;;;;;23.75;47.76;100827.16;4873104;29;20119;-74
2022/07/27 08:58:44;;;;;;;2.00;0.88;;;;;;;23.86;45.86;100833.97;4878769;29;20055;-74
2022/07/27 09:01:10;;;;;;;2.55;0.70;;;;;;;23.87;46.81;100831.97;4857464;29;20036;-74
2022/07/27 09:03:36;;;;;;;4.07;1.08;;;;;;;23.63;47.46;100843.91;4888636;29;20064;-73
2022/07/27 09:06:03;;;;;;;3.92;1.00;;;;;;;23.60;47.56;100841.81;4889954;29;20037;-73
2022/07/27 09:08:30;;;;;;;2.95;1.10;;;;;;;23.90;46.90;100838.84;4879401;29;20032;-73
2022/07/27 09:10:56;;;;;;;1.85;0.90;;;;;;;24.03;46.91;100832.13;4874392;29;20029;-72
2022/07/27 09:13:23;;;;;;;2.70;0.90;;;;;;;24.37;47.12;100835.59;4878530;29;20411;-74
2022/07/27 09:15:52;;;;;;;2.45;0.70;;;;;;;24.85;45.80;100822.78;4894868;29;20035;-74
2022/07/27 09:18:23;;;;;;;2.88;0.98;;;;;;;25.45;44.72;100833.25;4890941;29;20471;-73
2022/07/27 09:21:09;;;;;;;4.55;1.45;;;;;;;25.45;44.30;100836.06;4894445;29;20472;-75
2022/07/27 09:23:35;;;;;;;7.57;1.08;;;;;;;25.22;44.59;100822.63;4894524;29;20039;-74
2022/07/27 09:26:16;;;;;;;1.58;0.85;;;;;;;25.38;45.00;100824.69;4887867;29;20069;-73
2022/07/27 09:28:42;;;;;;;2.70;0.95;;;;;;;25.18;45.29;100824.50;4881402;29;20029;-73
2022/07/27 09:31:13;;;;;;;3.67;0.60;;;;;;;24.80;44.77;100825.81;4885863;29;20033;-75
2022/07/27 09:33:46;;;;;;;2.42;0.80;;;;;;;24.58;45.90;100819.53;4872604;29;20100;-74
2022/07/27 09:36:12;;;;;;;2.50;0.90;;;;;;;24.69;46.08;100824.66;4886845;29;20484;-72
2022/07/27 09:38:48;;;;;;;8.32;1.10;;;;;;;24.46;45.58;100813.97;4877672;29;20085;-75
2022/07/27 09:41:14;;;;;;;6.53;0.60;;;;;;;24.35;45.60;100826.78;4884675;29;20036;-75
2022/07/27 09:43:51;;;;;;;1.73;0.75;;;;;;;24.22;46.27;100821.19;4879368;29;20020;-74
2022/07/27 09:46:28;;;;;;;2.92;1.17;;;;;;;24.29;46.25;100805.81;4878549;29;20060;-73
2022/07/27 09:48:54;;;;;;;2.55;0.90;;;;;;;24.33;45.55;100823.53;4883866;29;20028;-74
2022/07/27 09:51:23;;;;;;;4.32;1.05;;;;;;;23.99;46.57;100825.59;4873797;29;20051;-73
2022/07/27 09:53:50;;;;;;;3.55;0.85;;;;;;;23.35;47.25;100822.19;4868457;29;20037;-75
2022/07/27 09:56:16;;;;;;;4.10;1.00;;;;;;;23.13;48.14;100815.00;4874880;29;20412;-74
2022/07/27 09:58:55;;;;;;;2.88;1.00;;;;;;;23.07;47.80;100822.75;4885837;29;20035;-75
2022/07/27 10:01:41;;;;;;;1.45;0.90;;;;;;;22.81;48.05;100815.41;4883565;29;20035;-74
2022/07/27 10:04:07;;;;;;;4.20;1.27;;;;;;;22.58;48.31;100814.09;4872843;29;20055;-73
2022/07/27 10:06:37;;;;;;;2.67;0.85;;;;;;;22.62;48.64;100798.34;4897614;29;20802;-75
2022/07/27 10:09:02;;;;;;;2.65;0.90;;;;;;;22.69;48.16;100820.88;4877632;29;20032;-73
2022/07/27 10:11:28;;;;;;;2.25;0.85;;;;;;;22.61;47.83;100813.41;4897045;29;20532;-75
2022/07/27 10:13:56;;;;;;;3.13;0.98;;;;;;;22.46;48.14;100812.84;4900559;29;20536;-73
2022/07/27 10:16:30;;;;;;;2.80;0.90;;;;;;;22.47;48.40;100813.66;4880012;29;20041;-74
2022/07/27 10:18:55;;;;;;;1.83;0.80;;;;;;;22.56;48.51;100810.81;4891562;29;20388;-74
2022/07/27 10:21:22;;;;;;;2.67;0.75;;;;;;;22.78;47.87;100816.06;4876313;29;20037;-73
2022/07/27 10:24:04;;;;;;;3.70;0.90;;;;;;;22.84;47.95;100811.91;4892099;29;20087;-75
2022/07/27 10:26:35;;;;;;;1.17;0.60;;;;;;;22.91;47.84;100804.97;4876970;29;20041;-74
2022/07/27 10:29:05;;;;;;;1.83;0.70;;;;;;;22.98;48.36;100805.25;4892584;29;20098;-74
2022/07/27 10:31:36;;;;;;;5.18;0.82;;;;;;;23.15;48.08;100804.31;4896978;29;20368;-73
2022/07/27 10:34:04;;;;;;;2.05;0.77;;;;;;;23.16;47.77;100805.97;4878499;29;20091;-74
2022/07/27 10:36:30;;;;;;;3.33;0.90;;;;;;;23.09;47.42;100795.31;4882555;29;20024;-73
2022/07/27 10:38:58;;;;;;;2.10;0.85;;;;;;;23.12;47.59;100800.22;4887778;29;20029;-75
2022/07/27 10:41:32;;;;;;;3.05;0.75;;;;;;;23.15;47.34;100805.13;4884693;29;20436;-75
2022/07/27 10:44:13;;;;;;;3.80;0.77;;;;;;;23.12;47.36;100800.22;4898158;29;20032;-73
2022/07/27 10:46:53;;;;;;;4.10;0.70;;;;;;;23.16;47.27;100806.75;4888004;29;20033;-75
2022/07/27 10:49:20;;;;;;;1.90;0.55;;;;;;;22.96;47.17;100796.41;4896157;29;20064;-74
2022/07/27 10:51:46;;;;;;;3.13;0.60;;;;;;;22.83;47.90;100793.56;4902960;29;20039;-75
2022/07/27 10:54:32;;;;;;;3.28;0.98;;;;;;;22.84;47.68;100794.41;4866195;29;20040;-74
2022/07/27 10:56:59;;;;;;;1.83;0.70;;;;;;;22.85;47.48;100790.44;4892059;29;20032;-75
2022/07/27 10:59:47;;;;;;;4.13;0.60;;;;;;;22.81;47.58;100790.31;4871496;29;20036;-74
2022/07/27 11:02:16;;;;;;;2.88;0.70;;;;;;;22.65;48.17;100794.88;4874917;29;20040;-75
2022/07/27 11:04:51;;;;;;;2.28;0.75;;;;;;;22.55;48.51;100772.97;4887739;29;20049;-74
2022/07/27 11:07:20;;;;;;;3.03;0.60;;;;;;;22.56;48.44;100789.34;4858211;29;20078;-75
2022/07/27 11:09:47;;;;;;;1.02;0.57;;;;;;;22.22;48.30;100785.59;4873066;29;20425;-73
2022/07/27 11:12:14;;;;;;;4.32;0.77;;;;;;;21.83;49.07;100783.97;4877824;29;20131;-75
2022/07/27 11:14:46;;;;;;;1.27;0.55;;;;;;;21.58;49.71;100778.19;4885248;29;20037;-75
2022/07/27 11:17:12;;;;;;;2.22;0.73;;;;;;;21.37;50.60;100789.19;4896909;29;20376;-75
2022/07/27 11:19:37;;;;;;;1.58;0.70;;;;;;;21.21;51.19;100786.09;4892804;29;20093;-77
2022/07/27 11:22:03;;;;;;;2.70;0.80;;;;;;;21.39;51.15;100793.28;4872270;29;20483;-75
2022/07/27 11:24:29;;;;;;;2.55;0.93;;;;;;;21.75;51.48;100786.47;4872868;29;20040;-74